createdAt,value
2022-10-06T00:01:04.241Z,0.50
2022-10-06T00:03:31.112Z,0.73
2022-10-06T00:06:02.132Z,0.50
2022-10-06T00:08:31.668Z,0.60
2022-10-06T00:10:58.631Z,0.60
2022-10-06T00:13:25.494Z,0.40
2022-10-06T00:15:52.504Z,0.45
2022-10-06T00:18:19.178Z,0.47
2022-10-06T00:20:45.741Z,0.40
2022-10-06T00:23:12.345Z,0.63
2022-10-06T00:25:39.044Z,0.45
2022-10-06T00:28:05.702Z,0.65
2022-10-06T00:30:32.469Z,0.47
2022-10-06T00:33:01.320Z,0.60
2022-10-06T00:35:32.114Z,0.50
2022-10-06T00:37:58.721Z,0.68
2022-10-06T00:40:25.523Z,0.68
2022-10-06T00:42:57.026Z,0.60
2022-10-06T00:45:47.552Z,0.75
2022-10-06T00:48:18.205Z,0.60
2022-10-06T00:50:44.831Z,0.82
2022-10-06T00:53:11.608Z,0.40
2022-10-06T00:55:38.192Z,0.60
2022-10-06T00:58:05.652Z,0.60
2022-10-06T01:00:32.991Z,0.70
2022-10-06T01:03:06.004Z,0.70
2022-10-06T01:05:36.079Z,0.75
2022-10-06T01:08:02.720Z,0.60
2022-10-06T01:10:29.348Z,0.88
2022-10-06T01:12:57.238Z,0.90
2022-10-06T01:15:25.472Z,0.52
2022-10-06T01:17:55.850Z,0.57
2022-10-06T01:20:23.128Z,0.70
2022-10-06T01:22:54.065Z,0.95
2022-10-06T01:25:21.076Z,0.70
2022-10-06T01:27:53.559Z,0.80
2022-10-06T01:30:28.965Z,0.80
2022-10-06T01:32:55.842Z,0.82
2022-10-06T01:35:22.505Z,1.65
2022-10-06T01:37:49.089Z,1.05
2022-10-06T01:40:15.827Z,0.93
2022-10-06T01:42:42.564Z,1.33
2022-10-06T01:45:09.563Z,0.70
2022-10-06T01:47:36.136Z,1.10
2022-10-06T01:50:02.744Z,3.08
2022-10-06T01:52:29.316Z,1.30
2022-10-06T01:54:55.889Z,1.20
2022-10-06T01:57:22.503Z,1.17
2022-10-06T01:59:54.453Z,1.20
2022-10-06T02:02:21.449Z,1.30
2022-10-06T02:04:48.523Z,1.40
2022-10-06T02:07:15.100Z,1.30
2022-10-06T02:09:41.648Z,1.65
2022-10-06T02:12:08.230Z,1.23
2022-10-06T02:14:34.833Z,1.40
2022-10-06T02:17:01.448Z,1.52
2022-10-06T02:19:28.150Z,1.67
2022-10-06T02:21:54.695Z,1.83
2022-10-06T02:24:21.286Z,1.35
2022-10-06T02:26:47.892Z,1.45
2022-10-06T02:29:14.487Z,1.13
2022-10-06T02:31:41.212Z,1.27
2022-10-06T02:34:07.827Z,1.38
2022-10-06T02:36:34.401Z,1.75
2022-10-06T02:39:01.004Z,1.50
2022-10-06T02:41:27.554Z,1.20
2022-10-06T02:43:55.311Z,1.00
2022-10-06T02:46:22.457Z,1.35
2022-10-06T02:48:49.161Z,1.58
2022-10-06T02:51:21.092Z,1.60
2022-10-06T02:53:48.619Z,1.50
2022-10-06T02:56:20.888Z,1.40
2022-10-06T02:58:48.102Z,1.55
2022-10-06T03:01:17.368Z,1.90
2022-10-06T03:03:44.657Z,1.95
2022-10-06T03:06:22.632Z,1.38
2022-10-06T03:08:53.399Z,1.20
2022-10-06T03:11:21.477Z,1.58
2022-10-06T03:13:49.919Z,1.58
2022-10-06T03:16:25.249Z,1.88
2022-10-06T03:18:54.587Z,1.35
2022-10-06T03:21:23.443Z,1.88
2022-10-06T03:23:51.892Z,1.55
2022-10-06T03:26:21.128Z,1.70
2022-10-06T03:28:47.777Z,1.70
2022-10-06T03:31:14.932Z,1.50
2022-10-06T03:33:41.773Z,2.92
2022-10-06T03:36:11.828Z,1.65
2022-10-06T03:38:38.658Z,1.70
2022-10-06T03:41:10.895Z,1.98
2022-10-06T03:43:38.071Z,1.98
2022-10-06T03:46:05.690Z,2.05
2022-10-06T03:48:34.147Z,2.20
2022-10-06T03:51:26.934Z,1.75
2022-10-06T03:53:53.832Z,1.70
2022-10-06T03:56:31.620Z,1.95
2022-10-06T03:59:00.192Z,1.45
2022-10-06T04:03:58.801Z,1.42
2022-10-06T04:06:27.172Z,1.42
2022-10-06T04:08:54.674Z,1.65
2022-10-06T04:11:26.062Z,1.52
2022-10-06T04:14:00.864Z,2.28
2022-10-06T04:16:31.421Z,1.80
2022-10-06T04:19:00.261Z,1.50
2022-10-06T04:21:27.902Z,1.70
2022-10-06T04:23:55.721Z,1.70
2022-10-06T04:26:24.097Z,2.05
2022-10-06T04:28:50.938Z,1.38
2022-10-06T04:31:20.422Z,1.92
2022-10-06T04:33:48.209Z,1.77
2022-10-06T04:36:17.428Z,1.43
2022-10-06T04:38:44.145Z,1.30
2022-10-06T04:41:13.700Z,1.73
2022-10-06T04:43:40.374Z,1.63
2022-10-06T04:46:30.281Z,1.33
2022-10-06T04:48:54.879Z,1.30
2022-10-06T04:51:23.912Z,1.55
2022-10-06T04:53:50.900Z,1.17
2022-10-06T04:56:29.489Z,2.05
2022-10-06T04:58:57.001Z,1.55
2022-10-06T05:01:30.495Z,1.75
2022-10-06T05:03:59.119Z,1.23
2022-10-06T05:09:23.239Z,1.48
2022-10-06T05:11:49.768Z,1.50
2022-10-06T05:14:16.395Z,1.60
2022-10-06T05:16:43.164Z,1.50
2022-10-06T05:19:09.833Z,1.60
2022-10-06T05:21:36.600Z,1.50
2022-10-06T05:24:03.587Z,2.25
2022-10-06T05:26:31.864Z,1.65
2022-10-06T05:28:58.676Z,1.35
2022-10-06T05:31:31.720Z,1.52
2022-10-06T05:33:59.183Z,1.73
2022-10-06T05:36:29.010Z,1.25
2022-10-06T05:38:57.108Z,1.17
2022-10-06T05:41:31.051Z,2.40
2022-10-06T05:43:58.507Z,1.60
2022-10-06T05:46:28.260Z,1.77
2022-10-06T05:48:56.741Z,1.55
2022-10-06T05:51:30.065Z,1.63
2022-10-06T05:53:58.231Z,1.58
2022-10-06T05:56:26.619Z,2.08
2022-10-06T05:58:54.632Z,1.88
2022-10-06T06:01:25.241Z,1.75
2022-10-06T06:03:59.405Z,1.70
2022-10-06T06:06:31.838Z,1.77
2022-10-06T06:09:07.718Z,1.45
2022-10-06T06:11:35.576Z,1.38
2022-10-06T06:14:07.147Z,1.60
2022-10-06T06:16:34.718Z,1.08
2022-10-06T06:19:01.633Z,1.42
2022-10-06T06:21:29.148Z,1.30
2022-10-06T06:23:56.225Z,1.50
2022-10-06T06:26:29.973Z,1.30
2022-10-06T06:29:03.927Z,1.40
2022-10-06T06:31:32.028Z,1.60
2022-10-06T06:34:00.497Z,1.67
2022-10-06T06:36:36.070Z,1.55
2022-10-06T06:39:05.140Z,1.63
2022-10-06T06:41:33.591Z,1.95
2022-10-06T06:44:00.944Z,2.13
2022-10-06T06:46:31.999Z,1.70
2022-10-06T06:49:04.324Z,1.70
2022-10-06T06:51:34.549Z,1.90
2022-10-06T06:54:02.696Z,1.20
2022-10-06T06:56:35.057Z,1.80
2022-10-06T06:59:03.539Z,1.67
2022-10-06T07:01:30.720Z,1.80
2022-10-06T07:04:01.141Z,2.10
2022-10-06T07:06:30.133Z,2.15
2022-10-06T07:08:58.116Z,2.15
2022-10-06T07:11:26.141Z,1.88
2022-10-06T07:13:54.933Z,1.65
2022-10-06T07:16:41.600Z,2.55
2022-10-06T07:19:28.663Z,2.10
2022-10-06T07:22:14.024Z,2.13
2022-10-06T07:24:59.228Z,1.45
2022-10-06T07:27:25.994Z,1.70
2022-10-06T07:29:55.356Z,1.40
2022-10-06T07:32:24.468Z,1.70
2022-10-06T07:37:18.560Z,1.67
2022-10-06T07:39:45.300Z,2.55
2022-10-06T07:42:15.157Z,1.80
2022-10-06T07:45:09.065Z,2.08
2022-10-06T07:47:38.281Z,2.08
2022-10-06T07:50:08.692Z,3.10
2022-10-06T07:52:39.303Z,2.15
2022-10-06T07:55:06.616Z,1.77
2022-10-06T07:57:35.388Z,1.98
2022-10-06T08:00:05.298Z,2.85
2022-10-06T08:02:35.499Z,1.83
2022-10-06T08:05:03.766Z,2.50
2022-10-06T08:07:30.406Z,1.70
2022-10-06T08:09:56.968Z,1.85
2022-10-06T08:12:37.838Z,1.92
2022-10-06T08:15:11.313Z,1.50
2022-10-06T08:17:38.322Z,2.88
2022-10-06T08:20:10.656Z,1.52
2022-10-06T08:22:38.860Z,1.77
2022-10-06T08:25:07.585Z,1.88
2022-10-06T08:27:35.441Z,2.00
2022-10-06T08:30:03.448Z,1.50
2022-10-06T08:32:30.073Z,1.95
2022-10-06T08:34:57.322Z,1.88
2022-10-06T08:37:24.614Z,1.98
2022-10-06T08:39:51.717Z,1.55
2022-10-06T08:42:26.472Z,2.28
2022-10-06T08:44:57.443Z,2.60
2022-10-06T08:47:28.115Z,1.88
2022-10-06T08:49:55.518Z,2.22
2022-10-06T08:52:46.250Z,1.67
2022-10-06T08:55:38.666Z,1.73
2022-10-06T08:58:23.067Z,1.70
2022-10-06T09:00:49.711Z,1.70
2022-10-06T09:03:28.789Z,1.95
2022-10-06T09:06:02.983Z,1.42
2022-10-06T09:08:53.987Z,1.73
2022-10-06T09:11:35.652Z,1.35
2022-10-06T09:14:09.348Z,1.42
2022-10-06T09:16:39.400Z,1.20
2022-10-06T09:19:18.199Z,1.67
2022-10-06T09:21:54.499Z,1.63
2022-10-06T09:24:31.313Z,2.28
2022-10-06T09:26:59.061Z,1.73
2022-10-06T09:29:27.937Z,1.87
2022-10-06T09:31:54.530Z,1.50
2022-10-06T09:34:45.672Z,1.42
2022-10-06T09:37:13.707Z,1.60
2022-10-06T09:39:42.913Z,1.80
2022-10-06T09:42:20.347Z,1.40
2022-10-06T09:44:57.664Z,1.98
2022-10-06T09:47:32.119Z,2.40
2022-10-06T09:50:21.823Z,2.03
2022-10-06T09:52:57.567Z,1.63
2022-10-06T09:55:28.820Z,1.33
2022-10-06T09:57:56.406Z,1.50
2022-10-06T10:00:46.669Z,1.52
2022-10-06T10:03:13.459Z,1.50
2022-10-06T10:05:47.408Z,2.65
2022-10-06T10:08:13.956Z,1.80
2022-10-06T10:10:40.953Z,1.48
2022-10-06T10:13:25.459Z,1.40
2022-10-06T10:16:01.075Z,1.80
2022-10-06T10:18:30.232Z,1.52
2022-10-06T10:20:59.704Z,1.60
2022-10-06T10:23:33.400Z,1.40
2022-10-06T10:26:17.750Z,1.60
2022-10-06T10:28:51.736Z,1.20
2022-10-06T10:31:41.146Z,1.75
2022-10-06T10:34:23.847Z,2.00
2022-10-06T10:37:04.295Z,1.42
2022-10-06T10:39:39.861Z,1.63
2022-10-06T10:42:16.434Z,1.42
2022-10-06T10:44:51.781Z,1.40
2022-10-06T10:47:25.851Z,1.27
2022-10-06T10:50:18.758Z,1.52
2022-10-06T10:52:47.354Z,1.27
2022-10-06T10:57:44.029Z,1.35
2022-10-06T11:00:21.246Z,1.25
2022-10-06T11:02:48.433Z,1.48
2022-10-06T11:05:16.545Z,1.42
2022-10-06T11:07:58.628Z,1.30
2022-10-06T11:10:48.687Z,1.27
2022-10-06T11:13:50.834Z,1.88
2022-10-06T11:16:41.735Z,1.40
2022-10-06T11:19:15.887Z,1.20
2022-10-06T11:21:58.882Z,1.42
2022-10-06T11:24:48.442Z,1.33
2022-10-06T11:27:33.752Z,1.67
2022-10-06T11:30:26.215Z,1.17
2022-10-06T11:33:18.092Z,1.45
2022-10-06T11:35:46.111Z,1.45
2022-10-06T11:38:36.201Z,1.63
2022-10-06T11:41:09.842Z,1.48
2022-10-06T11:44:04.652Z,1.13
2022-10-06T11:46:32.227Z,1.52
2022-10-06T11:49:30.714Z,1.15
2022-10-06T11:52:07.236Z,1.38
2022-10-06T11:54:43.860Z,1.30
2022-10-06T11:57:24.075Z,1.20
2022-10-06T11:59:56.353Z,1.52
2022-10-06T12:02:42.587Z,1.30
2022-10-06T12:05:49.398Z,1.45
2022-10-06T12:07:59.156Z,1.40
2022-10-06T12:10:28.494Z,1.75
2022-10-06T12:13:51.332Z,1.20
2022-10-06T12:19:19.323Z,1.35
2022-10-06T12:21:56.174Z,1.73
2022-10-06T12:24:34.902Z,1.55
2022-10-06T12:27:26.400Z,1.30
2022-10-06T12:30:23.732Z,1.33
2022-10-06T12:33:00.609Z,1.73
2022-10-06T12:35:40.018Z,1.30
2022-10-06T12:38:33.077Z,1.30
2022-10-06T12:41:01.661Z,1.67
2022-10-06T12:43:33.632Z,1.40
2022-10-06T12:46:05.020Z,1.40
2022-10-06T12:48:44.269Z,1.10
2022-10-06T12:51:18.675Z,1.25
2022-10-06T12:54:04.880Z,1.20
2022-10-06T12:56:34.173Z,1.40
2022-10-06T12:59:20.432Z,1.50
2022-10-06T13:01:52.711Z,1.55
2022-10-06T13:04:34.633Z,1.75
2022-10-06T13:07:16.169Z,1.50
2022-10-06T13:09:43.473Z,1.27
2022-10-06T13:12:37.165Z,1.20
2022-10-06T13:15:35.623Z,1.88
2022-10-06T13:18:08.117Z,1.90
2022-10-06T13:20:40.700Z,1.63
2022-10-06T13:23:36.485Z,1.40
2022-10-06T13:26:04.664Z,1.85
2022-10-06T13:28:45.114Z,1.45
2022-10-06T13:31:14.848Z,1.08
2022-10-06T13:33:45.648Z,1.55
2022-10-06T13:36:12.815Z,2.00
2022-10-06T13:38:41.265Z,1.13
2022-10-06T13:41:14.273Z,1.30
2022-10-06T13:43:56.020Z,1.30
2022-10-06T13:46:25.477Z,1.13
2022-10-06T13:49:00.902Z,1.27
2022-10-06T13:51:30.208Z,1.40
2022-10-06T13:53:58.919Z,1.60
2022-10-06T13:56:37.748Z,1.45
2022-10-06T13:59:32.194Z,1.05
2022-10-06T14:02:22.363Z,1.80
2022-10-06T14:05:23.097Z,1.30
2022-10-06T14:07:50.655Z,1.20
2022-10-06T14:10:19.311Z,1.20
2022-10-06T14:12:46.660Z,1.55
2022-10-06T14:15:21.551Z,1.17
2022-10-06T14:18:00.451Z,1.48
2022-10-06T14:20:45.944Z,1.73
2022-10-06T14:23:40.649Z,1.33
2022-10-06T14:26:07.896Z,1.48
2022-10-06T14:28:34.536Z,1.52
2022-10-06T14:31:01.187Z,1.50
2022-10-06T14:33:27.808Z,1.65
2022-10-06T14:35:54.390Z,1.33
2022-10-06T14:38:21.024Z,1.40
2022-10-06T14:40:47.561Z,1.30
2022-10-06T14:43:14.274Z,1.60
2022-10-06T14:45:44.459Z,1.70
2022-10-06T14:48:11.909Z,1.50
2022-10-06T14:50:38.475Z,1.30
2022-10-06T14:53:05.561Z,1.40
2022-10-06T14:55:32.113Z,1.30
2022-10-06T14:57:58.685Z,1.73
2022-10-06T15:00:28.457Z,1.20
2022-10-06T15:02:56.348Z,1.20
2022-10-06T15:05:23.627Z,1.38
2022-10-06T15:08:09.679Z,1.45
2022-10-06T15:10:38.354Z,1.92
2022-10-06T15:13:07.535Z,1.45
2022-10-06T15:15:34.397Z,1.02
2022-10-06T15:18:02.923Z,1.65
2022-10-06T15:22:56.479Z,1.50
2022-10-06T15:25:41.523Z,1.40
2022-10-06T15:28:30.697Z,1.48
2022-10-06T15:30:58.048Z,1.48
2022-10-06T15:33:24.916Z,1.30
2022-10-06T15:36:14.371Z,1.55
2022-10-06T15:38:40.926Z,1.50
2022-10-06T15:41:07.497Z,1.33
2022-10-06T15:43:53.993Z,1.48
2022-10-06T15:46:21.719Z,1.70
2022-10-06T15:48:48.409Z,1.33
2022-10-06T15:51:14.969Z,1.30
2022-10-06T15:53:45.309Z,1.33
2022-10-06T15:56:12.533Z,1.10
2022-10-06T15:58:39.785Z,1.40
2022-10-06T16:01:10.225Z,1.30
2022-10-06T16:03:41.333Z,1.30
2022-10-06T16:06:09.203Z,1.48
2022-10-06T16:08:36.072Z,1.57
2022-10-06T16:11:03.092Z,1.25
2022-10-06T16:13:29.641Z,1.60
2022-10-06T16:15:56.826Z,1.20
2022-10-06T16:18:23.848Z,1.27
2022-10-06T16:20:54.293Z,1.38
2022-10-06T16:23:23.985Z,1.17
2022-10-06T16:25:50.645Z,1.50
2022-10-06T16:28:17.533Z,1.33
2022-10-06T16:30:44.181Z,1.33
2022-10-06T16:33:10.818Z,1.00
2022-10-06T16:35:37.432Z,1.10
2022-10-06T16:38:03.972Z,0.93
2022-10-06T16:40:30.643Z,0.88
2022-10-06T16:42:57.214Z,1.50
2022-10-06T16:45:25.198Z,0.95
2022-10-06T16:47:51.812Z,1.10
2022-10-06T16:50:18.359Z,1.05
2022-10-06T16:52:44.924Z,1.05
2022-10-06T16:55:11.605Z,1.15
2022-10-06T16:57:38.147Z,1.40
2022-10-06T17:00:05.858Z,1.70
2022-10-06T17:02:34.069Z,2.33
2022-10-06T17:05:00.682Z,2.47
2022-10-06T17:07:27.249Z,1.73
2022-10-06T17:10:18.584Z,1.98
2022-10-06T17:12:40.878Z,1.83
2022-10-06T17:15:08.227Z,1.65
2022-10-06T17:17:35.204Z,1.85
2022-10-06T17:20:01.748Z,1.70
2022-10-06T17:22:28.321Z,1.50
2022-10-06T17:24:54.986Z,1.27
2022-10-06T17:27:22.527Z,1.58
2022-10-06T17:29:49.284Z,1.17
2022-10-06T17:32:15.846Z,1.90
2022-10-06T17:34:42.409Z,1.45
2022-10-06T17:37:08.987Z,1.48
2022-10-06T17:39:35.521Z,1.23
2022-10-06T17:42:02.148Z,2.00
2022-10-06T17:44:29.657Z,4.35
2022-10-06T17:47:00.668Z,5.43
2022-10-06T17:49:30.365Z,3.83
2022-10-06T17:51:57.124Z,5.53
2022-10-06T17:54:25.112Z,4.47
2022-10-06T17:56:54.871Z,4.35
2022-10-06T17:59:30.961Z,3.45
2022-10-06T18:02:00.898Z,3.60
2022-10-06T18:04:27.697Z,3.80
2022-10-06T18:06:54.720Z,15.23
2022-10-06T18:09:21.951Z,12.57
2022-10-06T18:11:54.483Z,9.98
2022-10-06T18:14:22.906Z,6.82
2022-10-06T18:16:56.248Z,3.55
2022-10-06T18:19:26.618Z,3.20
2022-10-06T18:21:58.705Z,3.28
2022-10-06T18:24:27.706Z,3.13
2022-10-06T18:26:56.386Z,5.10
2022-10-06T18:29:25.047Z,2.80
2022-10-06T18:31:53.361Z,2.50
2022-10-06T18:37:07.137Z,2.97
2022-10-06T18:39:33.698Z,2.95
2022-10-06T18:42:03.009Z,2.83
2022-10-06T18:44:48.226Z,2.80
2022-10-06T18:47:32.974Z,2.13
2022-10-06T18:49:59.516Z,2.65
2022-10-06T18:52:26.099Z,2.97
2022-10-06T18:54:52.640Z,3.03
2022-10-06T18:57:22.599Z,3.40
2022-10-06T18:59:50.523Z,3.00
2022-10-06T19:02:17.130Z,2.60
2022-10-06T19:04:43.780Z,2.58
2022-10-06T19:07:10.414Z,2.55
2022-10-06T19:09:36.964Z,2.70
2022-10-06T19:12:03.785Z,2.42
2022-10-06T19:14:36.630Z,2.45
2022-10-06T19:17:14.837Z,2.33
2022-10-06T19:19:47.989Z,3.00
2022-10-06T19:22:14.609Z,3.45
2022-10-06T19:24:43.071Z,3.67
2022-10-06T19:27:12.652Z,3.28
2022-10-06T19:29:45.686Z,2.92
2022-10-06T19:32:16.197Z,2.72
2022-10-06T19:34:43.415Z,2.38
2022-10-06T19:37:10.251Z,2.30
2022-10-06T19:39:42.990Z,2.20
2022-10-06T19:42:35.444Z,2.40
2022-10-06T19:45:02.585Z,2.42
2022-10-06T19:47:29.720Z,2.40
2022-10-06T19:50:02.064Z,2.30
2022-10-06T19:52:31.095Z,2.25
2022-10-06T19:54:57.825Z,2.20
2022-10-06T19:57:25.116Z,1.80
2022-10-06T19:59:51.730Z,2.30
2022-10-06T20:02:18.320Z,1.80
2022-10-06T20:04:45.433Z,2.28
2022-10-06T20:07:12.149Z,2.50
2022-10-06T20:09:38.895Z,2.58
2022-10-06T20:12:05.959Z,2.25
2022-10-06T20:14:32.771Z,1.70
2022-10-06T20:16:59.342Z,2.00
2022-10-06T20:19:25.948Z,2.20
2022-10-06T20:21:53.250Z,2.00
2022-10-06T20:24:25.735Z,2.72
2022-10-06T20:26:52.990Z,3.13
2022-10-06T20:29:23.056Z,3.47
2022-10-06T20:31:52.438Z,2.95
2022-10-06T20:34:24.740Z,2.40
2022-10-06T20:36:55.837Z,2.33
2022-10-06T20:39:41.865Z,1.92
2022-10-06T20:42:14.512Z,2.13
2022-10-06T20:44:42.729Z,2.60
2022-10-06T20:47:10.540Z,2.08
2022-10-06T20:49:37.718Z,2.10
2022-10-06T20:52:05.473Z,2.20
2022-10-06T20:54:34.996Z,2.38
2022-10-06T20:57:03.993Z,2.58
2022-10-06T20:59:31.417Z,2.75
2022-10-06T21:02:00.845Z,5.95
2022-10-06T21:04:27.655Z,6.80
2022-10-06T21:06:54.222Z,7.32
2022-10-06T21:09:20.838Z,4.80
2022-10-06T21:11:47.892Z,5.97
2022-10-06T21:14:15.222Z,4.82
2022-10-06T21:16:43.684Z,4.15
2022-10-06T21:19:14.543Z,4.13
2022-10-06T21:21:42.784Z,3.92
2022-10-06T21:24:09.837Z,3.17
2022-10-06T21:26:38.602Z,2.72
2022-10-06T21:29:05.276Z,2.70
2022-10-06T21:31:33.230Z,2.67
2022-10-06T21:34:01.308Z,2.35
2022-10-06T21:36:32.116Z,1.70
2022-10-06T21:39:00.564Z,2.45
2022-10-06T21:41:29.838Z,1.80
2022-10-06T21:44:04.130Z,2.25
2022-10-06T21:46:36.234Z,2.00
2022-10-06T21:49:05.265Z,1.58
2022-10-06T21:51:32.762Z,2.10
2022-10-06T21:54:00.213Z,1.77
2022-10-06T21:56:29.301Z,1.40
2022-10-06T21:58:56.673Z,1.88
2022-10-06T22:01:33.340Z,1.80
2022-10-06T22:04:00.407Z,1.98
2022-10-06T22:06:31.400Z,1.58
2022-10-06T22:08:58.728Z,1.75
2022-10-06T22:11:27.415Z,1.60
2022-10-06T22:13:55.804Z,1.65
2022-10-06T22:16:24.361Z,1.70
2022-10-06T22:18:51.522Z,1.55
2022-10-06T22:21:26.486Z,1.73
2022-10-06T22:24:01.860Z,1.73
2022-10-06T22:26:29.440Z,1.60
2022-10-06T22:28:57.305Z,1.77
2022-10-06T22:31:26.461Z,1.77
2022-10-06T22:33:58.283Z,1.95
2022-10-06T22:36:26.241Z,1.90
2022-10-06T22:38:53.150Z,1.73
2022-10-06T22:41:19.842Z,2.15
2022-10-06T22:43:46.417Z,2.47
2022-10-06T22:46:13.431Z,2.17
2022-10-06T22:48:40.230Z,2.30
2022-10-06T22:51:07.031Z,1.73
2022-10-06T22:53:33.780Z,1.50
2022-10-06T22:56:01.597Z,1.77
2022-10-06T22:58:28.418Z,2.05
2022-10-06T23:00:55.425Z,1.52
2022-10-06T23:03:22.364Z,1.88
2022-10-06T23:05:59.996Z,1.42
2022-10-06T23:08:31.234Z,1.80
2022-10-06T23:11:10.582Z,2.00
2022-10-06T23:13:37.561Z,2.35
2022-10-06T23:16:07.824Z,2.33
2022-10-06T23:18:36.332Z,1.70
2022-10-06T23:21:05.129Z,2.00
2022-10-06T23:23:32.245Z,2.00
2022-10-06T23:26:11.039Z,1.92
2022-10-06T23:28:38.183Z,1.75
2022-10-06T23:31:06.734Z,2.03
2022-10-06T23:36:08.834Z,1.48
2022-10-06T23:38:36.444Z,1.75
2022-10-06T23:41:03.439Z,1.90
2022-10-06T23:43:30.043Z,1.73
2022-10-06T23:45:56.961Z,2.28
2022-10-06T23:48:23.614Z,2.20
2022-10-06T23:51:03.474Z,1.98
2022-10-06T23:53:31.063Z,2.10
2022-10-06T23:55:57.922Z,1.80
2022-10-06T23:58:24.792Z,2.20
